Destinations Vagar Airport

Vagar Airport (EKVG / FAE)

Flights to Vagar Airport

Flight number From ETE Dispatch
SPY-212 EHGG Groningen Airport Eelde 02:30
SPY-2524 EGPH Edinburgh Airport 01:40

Flights from Vagar Airport

Flight number To ETE Dispatch
SPY-213 EHGG Groningen Airport Eelde
SPY-2525 EGPH Edinburgh Airport 01:40
About

Vagar Airport facts

Vagar Airport is located in Vagar at an elevation of 85.3 meters or 280 feet.

Currently, Speedy Airlines serves 4 flights to and from Vagar Airport.

Detailed airport info

Route map

Weather

Current weather

METAR

METAR

Metar data retrieved Sunday, 21 July 2024 at 18:55 UTC

EKVG 211820Z AUTO 22013KT 9999 OVC006/// 11/10 Q1000 RMK OVC009/// WIND SKEID VRB06G22KT
Wind Temperature
13 kt 11c